Time;durP1;ratioP1;P1;durP2;ratioP2;P2;SDS_P1;SDS_P2;PMS_P1;PMS_P2;Temp;Humidity;BMP_temperature;BMP_pressure;BME280_temperature;BME280_humidity;BME280_pressure;Samples;Min_cycle;Max_cycle;Signal;HPM_P1;HPM_P2
2022/04/28 00:00:11;;;;;;;6.00;1.50;;;;;;;4.16;70.20;100982.57;104916;1273;68362;-71
2022/04/28 00:03:04;;;;;;;6.60;1.60;;;;;;;4.18;70.45;100980.38;104737;1273;73009;-71
2022/04/28 00:05:52;;;;;;;5.50;1.40;;;;;;;4.22;71.02;100977.43;105033;1273;59783;-70
2022/04/28 00:08:41;;;;;;;7.30;1.80;;;;;;;4.27;71.46;100979.54;104803;1273;61119;-70
2022/04/28 00:11:29;;;;;;;8.00;1.60;;;;;;;4.31;72.13;100980.08;104811;1273;73752;-71
2022/04/28 00:14:17;;;;;;;6.00;1.30;;;;;;;4.34;72.09;100980.00;104576;1273;68409;-72
2022/04/28 00:17:05;;;;;;;7.90;1.60;;;;;;;4.38;72.75;100975.80;104559;1273;71329;-68
2022/04/28 00:19:53;;;;;;;6.50;1.60;;;;;;;4.42;73.03;100971.58;104971;1273;59653;-70
2022/04/28 00:22:41;;;;;;;8.40;1.80;;;;;;;4.43;73.52;100972.95;104805;1273;60484;-70
2022/04/28 00:25:29;;;;;;;4.70;1.20;;;;;;;4.45;74.05;100975.00;105042;1273;74257;-70
2022/04/28 00:28:20;;;;;;;7.90;1.40;;;;;;;4.44;74.71;100972.40;104825;1273;70070;-70
2022/04/28 00:31:09;;;;;;;7.50;1.60;;;;;;;4.43;75.25;100966.11;104800;1273;73578;-71
2022/04/28 00:33:57;;;;;;;6.90;1.40;;;;;;;4.40;74.87;100973.07;104802;1273;59575;-69
2022/04/28 00:36:45;;;;;;;5.90;1.30;;;;;;;4.34;75.13;100973.31;104719;1273;60545;-70
2022/04/28 00:39:33;;;;;;;6.10;1.40;;;;;;;4.26;75.28;100976.39;104779;1273;73383;-72
2022/04/28 00:42:21;;;;;;;5.50;1.30;;;;;;;4.17;75.59;100973.77;105464;1273;67354;-71
2022/04/28 00:45:12;;;;;;;5.60;1.70;;;;;;;4.08;75.93;100973.52;104839;1273;74467;-71
2022/04/28 00:51:08;;;;;;;7.30;1.80;;;;;;;3.98;76.98;100976.71;104977;1273;61112;-67
2022/04/28 00:53:58;;;;;;;7.30;1.70;;;;;;;3.96;77.24;100981.01;104627;1275;74808;-70
2022/04/28 00:56:46;;;;;;;6.50;1.80;;;;;;;3.97;77.48;100983.41;104975;1273;69241;-70
2022/04/28 00:59:38;;;;;;;7.60;1.60;;;;;;;3.99;77.91;100983.34;105158;1273;73523;-70
2022/04/28 01:02:26;;;;;;;5.60;1.50;;;;;;;4.04;77.77;100984.77;104849;1273;59695;-70
2022/04/28 01:05:15;;;;;;;6.70;1.60;;;;;;;4.07;77.74;100987.45;104837;1273;61585;-70
2022/04/28 01:08:03;;;;;;;7.90;1.50;;;;;;;4.09;77.38;100985.27;104865;1273;74393;-73
2022/04/28 01:10:53;;;;;;;6.80;1.80;;;;;;;4.11;76.94;100984.86;104761;1273;68037;-72
2022/04/28 01:13:43;;;;;;;7.10;1.50;;;;;;;4.11;76.68;100982.40;104845;1273;74419;-71
2022/04/28 01:16:34;;;;;;;6.50;1.40;;;;;;;4.10;76.06;100981.75;105092;1275;59560;-71
2022/04/28 01:19:23;;;;;;;7.50;1.70;;;;;;;4.07;75.35;100978.49;104765;1273;61213;-71
2022/04/28 01:22:11;;;;;;;5.90;1.60;;;;;;;4.04;75.33;100972.82;104798;1273;73565;-72
2022/04/28 01:25:08;;;;;;;7.70;1.60;;;;;;;4.00;75.05;100971.55;104803;1273;65906;-73
2022/04/28 01:27:59;;;;;;;7.40;1.50;;;;;;;3.98;75.14;100971.97;104736;1276;72957;-73
2022/04/28 01:30:46;;;;;;;8.70;2.00;;;;;;;3.94;75.33;100966.33;104854;1276;59733;-72
2022/04/28 01:33:34;;;;;;;7.30;1.60;;;;;;;3.91;75.52;100967.64;104840;1273;62069;-72
2022/04/28 01:36:23;;;;;;;6.60;1.70;;;;;;;3.88;75.97;100972.85;104692;1275;73603;-72
2022/04/28 01:39:11;;;;;;;6.30;1.50;;;;;;;3.88;76.15;100971.77;104736;1274;67353;-72
2022/04/28 01:42:00;;;;;;;7.30;1.80;;;;;;;3.88;76.19;100971.61;104582;1275;73389;-73
2022/04/28 01:44:50;;;;;;;7.10;1.80;;;;;;;3.88;76.42;100973.02;104851;1275;59693;-74
2022/04/28 01:47:41;;;;;;;7.30;1.70;;;;;;;3.90;76.19;100970.15;105051;1273;59669;-72
2022/04/28 01:57:15;;;;;;;6.20;1.60;;;;;;;3.99;77.04;100956.82;105185;1276;73159;-71
2022/04/28 02:00:22;;;;;;;6.10;1.60;;;;;;;3.98;76.96;100955.64;105142;1273;59771;-69
2022/04/28 02:03:14;;;;;;;6.80;1.70;;;;;;;3.96;77.15;100949.73;104931;1274;59657;-70
2022/04/28 02:06:03;;;;;;;8.10;2.10;;;;;;;3.96;77.12;100953.98;105147;1274;73854;-70
2022/04/28 02:08:51;;;;;;;7.80;1.70;;;;;;;3.95;76.75;100956.98;104860;1274;69383;-71
2022/04/28 02:11:39;;;;;;;6.50;1.60;;;;;;;3.94;76.69;100957.89;105019;1274;72431;-72
2022/04/28 02:14:47;;;;;;;5.70;1.80;;;;;;;3.87;76.59;100963.77;104834;1274;60552;-70
2022/04/28 02:17:55;;;;;;;5.60;1.50;;;;;;;3.80;76.94;100964.00;104787;1274;62077;-71
2022/04/28 02:20:44;;;;;;;7.10;1.80;;;;;;;3.79;77.11;100965.81;104848;1274;74361;-71
2022/04/28 02:23:32;;;;;;;5.70;1.60;;;;;;;3.78;76.96;100966.54;104825;1274;68635;-70
2022/04/28 02:26:20;;;;;;;7.60;1.80;;;;;;;3.77;76.79;100966.92;104830;1273;72282;-69
2022/04/28 02:29:08;;;;;;;5.50;1.50;;;;;;;3.77;76.84;100968.14;104832;1274;60337;-70
2022/04/28 02:31:58;;;;;;;6.00;1.30;;;;;;;3.77;76.85;100967.08;104822;1273;61132;-69
2022/04/28 02:34:46;;;;;;;7.00;1.40;;;;;;;3.77;76.76;100967.98;104974;1274;74771;-69
2022/04/28 02:37:34;;;;;;;5.90;1.20;;;;;;;3.77;76.82;100969.55;104772;1273;66881;-70
2022/04/28 02:40:24;;;;;;;7.20;1.50;;;;;;;3.76;77.00;100972.73;104940;1274;73641;-70
2022/04/28 02:43:12;;;;;;;6.80;1.70;;;;;;;3.74;76.91;100972.98;105364;1272;59740;-70
2022/04/28 02:46:00;;;;;;;5.00;1.40;;;;;;;3.69;76.82;100973.32;104811;1274;62043;-72
2022/04/28 02:48:59;;;;;;;6.40;1.50;;;;;;;3.66;76.80;100971.87;104893;1274;72763;-72
2022/04/28 02:51:49;;;;;;;6.60;1.50;;;;;;;3.63;76.85;100972.85;104681;1273;68411;-69
2022/04/28 02:54:38;;;;;;;5.60;1.50;;;;;;;3.57;76.58;100973.04;104816;1274;73445;-69
2022/04/28 02:57:26;;;;;;;6.90;1.60;;;;;;;3.53;77.06;100972.85;105196;1274;59773;-69
2022/04/28 03:00:15;;;;;;;5.90;1.30;;;;;;;3.50;77.06;100977.66;104722;1274;59618;-69
2022/04/28 03:03:12;;;;;;;6.00;1.70;;;;;;;3.47;76.74;100978.83;104989;1273;73517;-68
2022/04/28 03:12:15;;;;;;;6.20;1.60;;;;;;;3.32;76.93;100979.15;105165;1273;59679;-70
2022/04/28 03:15:12;;;;;;;6.60;1.50;;;;;;;3.27;77.14;100980.20;104954;1273;60946;-72
2022/04/28 03:18:00;;;;;;;6.00;1.50;;;;;;;3.23;77.47;100979.95;104894;1274;74945;-72
2022/04/28 03:20:48;;;;;;;7.20;1.80;;;;;;;3.22;77.75;100982.25;104824;1274;68600;-73
2022/04/28 03:23:37;;;;;;;8.70;1.50;;;;;;;3.21;77.83;100977.39;104802;1274;73439;-72
2022/04/28 03:26:25;;;;;;;6.00;1.60;;;;;;;3.21;77.92;100975.29;104765;1273;60190;-71
2022/04/28 03:29:13;;;;;;;5.50;1.60;;;;;;;3.23;78.02;100978.20;104899;1274;60342;-72
2022/04/28 03:32:01;;;;;;;5.70;1.60;;;;;;;3.27;78.32;100977.19;104844;1274;73887;-70
2022/04/28 03:35:05;;;;;;;6.40;1.70;;;;;;;3.33;78.34;100972.44;105028;1273;69614;-73
2022/04/28 03:37:53;;;;;;;7.20;1.70;;;;;;;3.36;78.26;100974.26;104770;1274;73795;-71
2022/04/28 03:40:43;;;;;;;6.40;1.70;;;;;;;3.38;78.29;100977.53;105153;1274;59702;-71
2022/04/28 03:43:31;;;;;;;8.60;2.00;;;;;;;3.39;78.33;100981.02;104703;1274;59669;-72
2022/04/28 03:46:19;;;;;;;6.50;1.90;;;;;;;3.40;78.26;100982.35;104776;1272;73395;-72
2022/04/28 03:49:08;;;;;;;6.80;1.70;;;;;;;3.39;78.01;100983.11;104720;1274;67270;-72
2022/04/28 03:51:58;;;;;;;8.20;1.90;;;;;;;3.41;78.03;100983.92;105195;1274;74174;-74
2022/04/28 03:54:45;;;;;;;5.70;1.80;;;;;;;3.43;77.99;100985.98;104839;1274;59650;-73
2022/04/28 03:57:34;;;;;;;7.20;1.70;;;;;;;3.45;78.02;100982.05;105057;1274;60250;-73
2022/04/28 04:00:23;;;;;;;8.80;2.10;;;;;;;3.48;77.87;100983.33;105091;1274;73308;-72
2022/04/28 04:03:13;;;;;;;6.70;1.70;;;;;;;3.53;77.81;100985.99;104870;1274;67517;-72
2022/04/28 04:06:02;;;;;;;6.70;2.00;;;;;;;3.56;77.82;100987.64;104910;1272;73458;-73
2022/04/28 04:08:50;;;;;;;7.00;1.80;;;;;;;3.60;77.44;100987.85;104853;1274;60518;-71
2022/04/28 04:11:37;;;;;;;7.40;1.70;;;;;;;3.65;77.29;100985.23;104684;1274;60984;-71
2022/04/28 04:14:25;;;;;;;7.30;1.60;;;;;;;3.72;76.91;100985.35;104784;1274;72887;-71
2022/04/28 04:17:14;;;;;;;7.20;1.70;;;;;;;3.81;76.63;100989.60;104772;1274;67170;-73
2022/04/28 04:20:03;;;;;;;6.50;1.80;;;;;;;3.91;76.64;100989.77;104938;1274;74275;-73
2022/04/28 04:22:52;;;;;;;6.10;1.80;;;;;;;4.03;76.17;100990.92;104733;1274;59812;-72
2022/04/28 04:25:41;;;;;;;8.80;1.90;;;;;;;4.12;75.56;100988.33;104872;1274;61520;-74
2022/04/28 04:28:36;;;;;;;8.00;1.50;;;;;;;4.22;75.22;100989.73;104713;1273;73895;-71
2022/04/28 04:35:05;;;;;;;6.50;1.60;;;;;;;4.35;74.59;100987.31;104863;1273;73177;-71
2022/04/28 04:38:04;;;;;;;5.80;1.40;;;;;;;4.40;74.31;100991.85;104119;1274;1002988;-71
2022/04/28 04:40:52;;;;;;;6.80;1.30;;;;;;;4.47;74.45;100990.40;104677;1274;62385;-72
2022/04/28 04:43:40;;;;;;;6.40;1.60;;;;;;;4.50;73.86;100990.45;104935;1274;74754;-71
2022/04/28 04:46:30;;;;;;;7.60;2.00;;;;;;;4.51;73.83;100994.98;104800;1273;68326;-69
2022/04/28 04:49:38;;;;;;;8.20;2.20;;;;;;;4.52;73.67;100998.45;105324;1274;72626;-67
2022/04/28 04:52:39;;;;;;;10.30;4.00;;;;;;;4.53;73.29;101002.48;106008;1273;59753;-68
2022/04/28 04:55:36;;;;;;;10.60;2.80;;;;;;;4.51;73.07;101005.34;106177;1273;59751;-66
2022/04/28 04:58:27;;;;;;;7.40;2.40;;;;;;;4.52;73.11;101005.86;106103;1274;72416;-68
2022/04/28 05:01:16;;;;;;;10.80;3.90;;;;;;;4.54;73.17;101007.36;106378;1274;68095;-68
2022/04/28 05:04:23;;;;;;;9.40;2.70;;;;;;;4.60;73.00;101008.02;105452;1274;73725;-69
2022/04/28 05:07:35;;;;;;;8.70;3.00;;;;;;;4.66;72.77;101007.95;104963;1274;59716;-70
2022/04/28 05:10:23;;;;;;;12.10;3.00;;;;;;;4.76;72.45;101008.09;104797;1274;61215;-68
2022/04/28 05:13:11;;;;;;;9.60;2.10;;;;;;;4.87;72.14;101006.98;105041;1274;73758;-67
2022/04/28 05:16:15;;;;;;;7.40;1.80;;;;;;;4.99;71.80;101008.63;104873;1274;68005;-70
2022/04/28 05:19:07;;;;;;;8.30;3.20;;;;;;;5.11;70.93;101009.02;104929;1274;73877;-65
2022/04/28 05:22:19;;;;;;;5.80;1.80;;;;;;;5.28;70.25;101004.47;104942;1273;59718;-72
2022/04/28 05:25:25;;;;;;;8.20;1.40;;;;;;;5.79;68.49;101003.42;105206;1274;60274;-72
2022/04/28 05:28:32;;;;;;;5.10;1.20;;;;;;;7.05;65.06;100998.45;104976;1274;72506;-73
2022/04/28 05:31:58;;;;;;;5.30;1.30;;;;;;;8.89;60.53;100994.80;105102;1273;68741;-72
2022/04/28 05:35:11;;;;;;;4.40;1.10;;;;;;;10.61;54.66;100989.63;105085;1274;73478;-72
2022/04/28 05:37:59;;;;;;;5.70;1.50;;;;;;;12.06;50.23;100988.31;105090;1273;59800;-72
2022/04/28 05:40:48;;;;;;;4.90;1.00;;;;;;;13.52;46.88;100988.00;104316;1274;1003884;-72
2022/04/28 05:46:44;;;;;;;6.70;1.20;;;;;;;16.34;39.65;100977.16;104880;1274;68099;-75
2022/04/28 05:49:33;;;;;;;5.20;1.00;;;;;;;17.32;36.42;100978.52;104704;1274;73987;-72
2022/04/28 05:52:22;;;;;;;4.70;1.00;;;;;;;18.28;34.79;100981.58;105612;1272;59774;-74
2022/04/28 05:55:11;;;;;;;4.50;1.20;;;;;;;19.11;32.97;100978.23;105227;1274;60284;-72
2022/04/28 05:58:01;;;;;;;4.70;0.90;;;;;;;19.78;31.35;100976.09;104887;1274;72493;-75
2022/04/28 06:00:49;;;;;;;4.80;1.00;;;;;;;20.33;29.87;100975.67;105158;1274;68340;-73
2022/04/28 06:03:39;;;;;;;5.30;1.00;;;;;;;20.76;29.15;100974.55;104862;1274;70911;-72
2022/04/28 06:06:35;;;;;;;4.80;0.90;;;;;;;21.29;28.42;100974.95;105081;1274;59817;-73
2022/04/28 06:09:27;;;;;;;5.10;1.10;;;;;;;21.79;27.05;100973.02;105287;1273;60502;-71
2022/04/28 06:12:16;;;;;;;6.00;1.30;;;;;;;22.12;26.30;100976.52;104772;1274;72686;-73
2022/04/28 06:15:25;;;;;;;5.70;1.10;;;;;;;22.51;25.71;100975.08;105216;1274;67024;-73
2022/04/28 06:18:39;;;;;;;5.10;1.10;;;;;;;22.85;25.03;100967.04;105019;1274;72081;-73
2022/04/28 06:21:49;;;;;;;5.40;0.90;;;;;;;23.24;24.00;100964.10;104779;1274;59620;-73
2022/04/28 06:24:38;;;;;;;5.70;1.00;;;;;;;23.48;22.98;100966.05;104928;1274;59810;-74
2022/04/28 06:27:30;;;;;;;4.50;0.90;;;;;;;23.94;22.22;100961.68;104901;1274;72856;-74
2022/04/28 06:30:19;;;;;;;6.00;1.00;;;;;;;24.40;21.23;100960.88;104941;1274;68484;-69
2022/04/28 06:33:10;;;;;;;5.10;1.10;;;;;;;25.00;20.86;100958.11;104712;1274;73665;-72
2022/04/28 06:36:06;;;;;;;6.20;1.30;;;;;;;25.57;20.40;100958.82;104937;1274;59869;-73
2022/04/28 06:39:02;;;;;;;6.20;1.20;;;;;;;26.04;19.96;100953.13;104694;1274;60381;-73
2022/04/28 06:41:50;;;;;;;5.80;1.10;;;;;;;26.45;18.99;100950.81;104867;1273;72655;-74
2022/04/28 06:44:41;;;;;;;6.70;1.40;;;;;;;26.71;18.19;100947.83;104896;1274;69852;-73
2022/04/28 06:47:50;;;;;;;5.90;1.20;;;;;;;26.89;18.10;100950.96;104928;1274;71617;-72
2022/04/28 06:50:58;;;;;;;5.70;1.10;;;;;;;27.07;17.67;100951.30;104860;1274;59721;-73
2022/04/28 06:53:48;;;;;;;5.40;1.10;;;;;;;27.14;17.15;100961.06;104773;1274;62285;-73
2022/04/28 06:56:37;;;;;;;5.70;1.10;;;;;;;27.44;16.77;100962.15;104639;1274;72832;-74
2022/04/28 06:59:27;;;;;;;7.00;1.50;;;;;;;27.54;16.26;100962.98;104577;1275;69629;-72
2022/04/28 07:02:15;;;;;;;5.70;1.30;;;;;;;27.60;15.48;100964.25;104730;1274;73248;-72
2022/04/28 07:05:06;;;;;;;6.00;1.20;;;;;;;27.71;14.65;100966.46;104824;1274;59837;-74
2022/04/28 07:07:54;;;;;;;5.70;1.30;;;;;;;27.68;14.79;100970.67;104821;1274;59647;-74
2022/04/28 07:10:49;;;;;;;5.60;1.10;;;;;;;27.56;14.30;100967.65;104743;1274;74789;-72
2022/04/28 07:13:39;;;;;;;4.80;1.00;;;;;;;27.50;13.35;100974.77;105268;1274;68022;-74
2022/04/28 07:16:46;;;;;;;5.30;1.00;;;;;;;27.41;12.41;100974.23;105373;1274;72018;-73
2022/04/28 07:19:43;;;;;;;6.00;1.10;;;;;;;27.38;12.96;100975.88;104974;1274;59631;-73
2022/04/28 07:22:31;;;;;;;6.50;1.40;;;;;;;27.69;12.79;100974.64;105052;1274;59722;-73
2022/04/28 07:25:19;;;;;;;5.90;1.30;;;;;;;28.12;12.16;100977.09;105079;1274;74787;-74
2022/04/28 07:28:07;;;;;;;6.10;1.20;;;;;;;28.31;12.69;100977.77;105157;1274;66517;-70
2022/04/28 07:31:21;;;;;;;7.40;1.60;;;;;;;28.24;12.76;100978.51;104792;1275;73094;-70
2022/04/28 07:34:32;;;;;;;8.70;1.80;;;;;;;28.16;12.81;100980.20;104809;1274;59765;-68
2022/04/28 07:37:40;;;;;;;7.90;1.60;;;;;;;28.28;12.98;100979.00;104969;1274;59607;-73
2022/04/28 07:40:50;;;;;;;9.10;1.80;;;;;;;28.25;13.03;100976.09;104966;1274;75204;-73
2022/04/28 07:43:38;;;;;;;7.00;1.60;;;;;;;28.32;13.94;100977.98;104936;1274;66496;-73
2022/04/28 07:46:28;;;;;;;7.00;1.70;;;;;;;28.21;14.02;100974.05;104985;1274;74516;-73
2022/04/28 07:49:15;;;;;;;8.20;1.60;;;;;;;28.24;13.53;100977.37;105126;1274;59822;-73
2022/04/28 07:52:03;;;;;;;7.00;1.60;;;;;;;28.12;12.87;100983.20;104825;1274;59762;-73
2022/04/28 07:54:56;;;;;;;7.80;1.40;;;;;;;28.14;12.83;100982.30;104857;1274;73764;-73
2022/04/28 07:57:46;;;;;;;7.50;1.60;;;;;;;27.96;12.41;100988.42;104871;1275;69678;-73
2022/04/28 08:00:42;;;;;;;7.50;1.40;;;;;;;27.58;13.52;100985.40;105012;1274;72822;-74
2022/04/28 08:03:31;;;;;;;8.40;1.70;;;;;;;27.42;13.37;100985.17;104943;1274;60234;-78
2022/04/28 08:06:19;;;;;;;7.50;1.40;;;;;;;27.50;13.15;100987.55;104799;1274;59660;-73
2022/04/28 08:09:07;;;;;;;6.50;1.10;;;;;;;27.58;12.96;100989.85;104855;1274;73232;-77
2022/04/28 08:11:56;;;;;;;7.70;1.30;;;;;;;27.71;13.34;100991.63;104824;1274;68008;-74
2022/04/28 08:14:45;;;;;;;7.00;1.40;;;;;;;27.59;13.63;100996.16;104724;1274;74443;-73
2022/04/28 08:17:36;;;;;;;6.80;1.30;;;;;;;27.71;13.39;100995.70;104923;1274;59758;-73
2022/04/28 08:20:24;;;;;;;8.30;1.50;;;;;;;27.43;12.66;100993.30;105065;1274;60289;-70
2022/04/28 08:23:12;;;;;;;7.80;1.50;;;;;;;27.11;13.50;100988.63;104963;1274;72510;-72
2022/04/28 08:26:02;;;;;;;8.20;1.10;;;;;;;27.12;13.78;100994.09;105119;1274;68246;-73
2022/04/28 08:28:50;;;;;;;6.50;1.00;;;;;;;27.09;14.01;100990.17;105434;1274;73478;-74
2022/04/28 08:31:44;;;;;;;7.50;1.20;;;;;;;27.02;13.72;100994.52;105303;1274;59810;-74
2022/04/28 08:34:36;;;;;;;7.10;1.30;;;;;;;27.16;13.83;100988.46;104880;1274;60234;-74
2022/04/28 08:37:25;;;;;;;9.30;1.60;;;;;;;27.14;14.61;100985.27;104931;1274;72408;-73
2022/04/28 08:40:14;;;;;;;6.10;1.30;;;;;;;27.14;14.88;100985.61;104896;1274;68649;-75
2022/04/28 08:43:04;;;;;;;6.30;1.30;;;;;;;27.38;14.28;100984.50;104736;1273;73471;-71
2022/04/28 08:49:15;;;;;;;5.10;1.00;;;;;;;27.35;14.36;100989.02;104927;1274;59289;-74
2022/04/28 08:52:15;;;;;;;4.60;1.00;;;;;;;27.36;14.42;100989.74;105158;1274;74686;-73
2022/04/28 08:55:08;;;;;;;6.60;1.70;;;;;;;27.51;14.06;100988.38;104864;1274;68485;-72
2022/04/28 08:57:55;;;;;;;8.70;1.20;;;;;;;27.67;14.43;100992.38;105311;1274;72889;-70
2022/04/28 09:00:44;;;;;;;6.10;1.20;;;;;;;27.71;13.51;100990.23;105203;1274;59906;-73
2022/04/28 09:03:46;;;;;;;8.20;1.10;;;;;;;27.47;13.35;100988.36;105310;1274;62055;-71
2022/04/28 09:07:08;;;;;;;6.30;1.50;;;;;;;27.32;14.03;100992.20;105125;1274;279767;-72
2022/04/28 09:10:30;;;;;;;5.10;1.10;;;;;;;27.35;13.78;100993.59;104782;1274;68175;-73
2022/04/28 09:16:52;;;;;;;8.00;1.30;;;;;;;27.07;13.63;100997.35;105100;1274;59746;-73
2022/04/28 09:19:43;;;;;;;12.20;1.30;;;;;;;26.90;13.54;100994.48;104801;1273;60391;-73
2022/04/28 09:22:42;;;;;;;9.10;1.50;;;;;;;26.85;13.96;101000.09;104954;1274;72992;-71
2022/04/28 09:25:31;;;;;;;6.70;1.20;;;;;;;26.86;14.09;101002.68;104990;1274;66770;-72
2022/04/28 09:28:22;;;;;;;7.00;1.10;;;;;;;26.82;13.92;101001.35;105048;1274;73347;-69
2022/04/28 09:31:12;;;;;;;7.00;0.90;;;;;;;26.69;13.94;100998.86;104932;1274;60957;-69
2022/04/28 09:34:27;;;;;;;5.80;1.00;;;;;;;26.85;14.02;100996.40;105248;1274;60222;-68
2022/04/28 09:37:52;;;;;;;7.30;1.00;;;;;;;26.78;13.69;100998.86;105099;1273;72039;-69
2022/04/28 09:43:58;;;;;;;8.10;0.90;;;;;;;26.84;13.87;100995.77;104958;1274;72793;-71
2022/04/28 09:46:51;;;;;;;8.40;1.60;;;;;;;26.89;13.63;100992.63;105163;1274;59649;-71
2022/04/28 09:49:41;;;;;;;7.00;1.20;;;;;;;26.80;13.79;100991.64;105032;1274;59576;-71
2022/04/28 09:52:31;;;;;;;7.20;1.10;;;;;;;26.67;13.98;100991.57;105063;1273;72053;-70
2022/04/28 09:55:24;;;;;;;6.70;1.20;;;;;;;26.53;14.20;100987.17;105003;1274;69985;-69
2022/04/28 09:58:52;;;;;;;7.30;1.10;;;;;;;26.45;14.35;100980.04;105438;1273;71738;-70
2022/04/28 10:01:40;;;;;;;7.80;1.20;;;;;;;26.61;14.23;100994.26;105123;1274;59938;-70
2022/04/28 10:04:29;;;;;;;4.90;1.00;;;;;;;26.99;13.87;100989.35;104900;1274;59865;-69
2022/04/28 10:07:40;;;;;;;6.60;1.20;;;;;;;27.21;13.66;100988.90;104716;1274;72995;-72
2022/04/28 10:10:28;;;;;;;7.60;1.10;;;;;;;27.59;13.27;100985.79;104832;1273;67772;-72
2022/04/28 10:13:17;;;;;;;5.50;1.10;;;;;;;27.46;13.10;100980.46;105092;1274;73365;-71
2022/04/28 10:16:15;;;;;;;6.40;1.10;;;;;;;27.45;13.28;100984.05;104798;1274;59742;-70
2022/04/28 10:19:19;;;;;;;7.70;1.30;;;;;;;27.44;13.22;100982.27;104986;1274;60640;-71
2022/04/28 10:22:11;;;;;;;5.40;1.00;;;;;;;27.44;13.05;100982.66;104790;1274;74701;-72
2022/04/28 10:32:23;;;;;;;5.10;1.20;;;;;;;26.95;13.52;100993.83;105034;1274;59765;-73
2022/04/28 10:35:10;;;;;;;6.00;1.00;;;;;;;26.75;13.53;100993.20;104868;1273;59535;-72
2022/04/28 10:38:10;;;;;;;9.80;1.30;;;;;;;26.60;13.50;101000.65;104839;1274;73885;-71
2022/04/28 10:41:06;;;;;;;7.90;1.30;;;;;;;26.26;13.45;100994.88;105229;1273;69757;-72
2022/04/28 10:43:58;;;;;;;6.70;1.20;;;;;;;26.03;13.90;101001.26;104784;1273;73518;-72
2022/04/28 10:46:59;;;;;;;7.40;1.10;;;;;;;25.46;13.90;101001.55;104780;1274;59710;-71
2022/04/28 10:49:53;;;;;;;6.80;1.50;;;;;;;25.23;14.66;100998.49;104992;1273;61595;-72
2022/04/28 10:52:41;;;;;;;8.80;1.50;;;;;;;25.44;14.56;100998.98;104853;1274;73231;-72
2022/04/28 10:55:33;;;;;;;10.70;1.40;;;;;;;25.58;14.13;100998.84;105118;1273;67373;-72
2022/04/28 10:58:27;;;;;;;7.10;1.50;;;;;;;25.58;14.31;100998.82;104758;1273;73543;-71
2022/04/28 11:01:33;;;;;;;7.40;1.30;;;;;;;25.91;14.23;101000.48;105043;1273;59887;-72
2022/04/28 11:04:24;;;;;;;7.00;1.20;;;;;;;26.26;13.85;100994.33;105329;1273;59656;-73
2022/04/28 11:07:19;;;;;;;4.90;1.20;;;;;;;26.48;13.85;100996.17;104884;1274;73694;-73
2022/04/28 11:10:07;;;;;;;7.90;1.40;;;;;;;26.47;13.82;100994.86;105157;1274;68618;-73
2022/04/28 11:12:55;;;;;;;5.80;1.10;;;;;;;26.43;13.91;100994.98;105071;1274;71350;-73
2022/04/28 11:15:45;;;;;;;6.10;1.10;;;;;;;26.27;13.98;100995.77;104774;1274;59550;-72
2022/04/28 11:18:34;;;;;;;5.90;1.20;;;;;;;26.04;14.14;100990.23;104842;1274;61872;-73
2022/04/28 11:21:23;;;;;;;9.50;1.10;;;;;;;25.42;14.72;100989.14;104696;1274;74308;-71
2022/04/28 11:24:11;;;;;;;10.00;1.20;;;;;;;24.82;15.24;100995.39;104951;1274;66714;-73
2022/04/28 11:27:25;;;;;;;6.70;1.30;;;;;;;24.24;15.91;100992.70;105015;1273;73166;-74
2022/04/28 11:30:25;;;;;;;6.00;1.30;;;;;;;23.77;16.28;100998.31;104906;1274;59754;-73
2022/04/28 11:33:13;;;;;;;6.70;1.20;;;;;;;23.48;16.30;100995.48;105476;1273;60492;-73
2022/04/28 11:36:13;;;;;;;6.60;1.30;;;;;;;23.01;16.52;101000.42;104778;1274;74823;-72
2022/04/28 11:39:03;;;;;;;9.20;1.40;;;;;;;22.58;17.37;101006.27;104989;1274;70045;-72
2022/04/28 11:41:53;;;;;;;6.50;1.40;;;;;;;22.09;17.98;101005.73;104675;1274;71983;-72
2022/04/28 11:44:53;;;;;;;9.90;1.60;;;;;;;21.41;18.04;101002.77;105197;1274;59653;-74
2022/04/28 11:47:46;;;;;;;7.00;1.30;;;;;;;20.85;18.66;101003.71;104724;1274;60276;-72
2022/04/28 11:50:34;;;;;;;10.30;1.80;;;;;;;20.51;19.26;101008.73;104644;1274;74602;-72
2022/04/28 11:53:23;;;;;;;7.90;1.70;;;;;;;20.11;19.58;101004.59;104858;1273;66457;-72
2022/04/28 11:56:25;;;;;;;9.30;2.10;;;;;;;19.52;19.63;101009.04;104869;1273;74242;-72
2022/04/28 11:59:14;;;;;;;9.40;1.80;;;;;;;18.90;20.44;101012.49;104884;1273;59830;-71
2022/04/28 12:02:02;;;;;;;6.30;1.30;;;;;;;18.40;21.55;101020.52;105031;1273;59761;-72
2022/04/28 12:04:52;;;;;;;6.40;1.30;;;;;;;17.83;22.58;101018.73;104966;1273;74019;-75
2022/04/28 12:07:51;;;;;;;6.10;1.40;;;;;;;17.50;22.71;101016.90;104993;1274;66920;-70
2022/04/28 12:20:11;;;;;;;5.50;1.30;;;;;;;16.20;23.88;101017.41;104784;1274;74227;-71
2022/04/28 12:22:58;;;;;;;7.00;1.20;;;;;;;15.93;23.76;101018.11;104718;1273;68526;-73
2022/04/28 12:25:47;;;;;;;6.80;1.20;;;;;;;15.78;24.00;101016.48;104682;1273;74468;-71
2022/04/28 12:28:44;;;;;;;5.90;1.40;;;;;;;15.61;23.79;101020.23;104863;1274;59660;-75
2022/04/28 12:31:32;;;;;;;6.80;1.40;;;;;;;15.35;23.69;101019.52;104985;1273;60395;-73
2022/04/28 12:34:35;;;;;;;5.80;1.50;;;;;;;15.08;24.15;101018.49;104909;1273;72740;-75
2022/04/28 12:37:28;;;;;;;5.50;1.40;;;;;;;14.98;24.05;101018.46;105026;1273;66980;-72
2022/04/28 12:40:19;;;;;;;7.20;1.20;;;;;;;14.89;24.48;101009.69;104688;1274;73641;-73
2022/04/28 12:43:09;;;;;;;7.90;1.40;;;;;;;14.88;24.29;101011.40;104858;1273;59683;-74
2022/04/28 12:45:57;;;;;;;8.70;1.40;;;;;;;14.83;24.58;101010.91;104836;1273;59967;-72
2022/04/28 12:48:56;;;;;;;8.30;1.40;;;;;;;14.82;24.85;101008.10;104774;1273;72499;-73
2022/04/28 12:51:53;;;;;;;7.50;1.90;;;;;;;14.76;25.51;101003.05;104880;1273;65987;-73
2022/04/28 12:54:41;;;;;;;7.40;1.40;;;;;;;14.65;25.10;101002.16;104952;1273;73476;-70
2022/04/28 12:57:30;;;;;;;5.80;1.30;;;;;;;14.53;25.54;101009.35;105088;1273;59698;-72
2022/04/28 13:00:22;;;;;;;8.20;1.40;;;;;;;14.50;25.64;101010.14;104850;1274;61402;-72
2022/04/28 13:03:10;;;;;;;5.40;1.20;;;;;;;14.48;25.07;101006.35;104986;1274;73051;-73
2022/04/28 13:05:59;;;;;;;7.10;1.60;;;;;;;14.43;24.77;101003.67;104853;1274;67548;-72
2022/04/28 13:08:51;;;;;;;8.00;1.40;;;;;;;14.33;24.80;101000.05;104798;1274;73583;-73
2022/04/28 13:11:41;;;;;;;5.30;1.20;;;;;;;14.25;24.99;101006.66;105013;1273;59557;-74
2022/04/28 13:14:30;;;;;;;7.40;1.20;;;;;;;14.15;24.67;101004.44;104108;1273;1003108;-72
2022/04/28 13:17:18;;;;;;;5.90;1.20;;;;;;;14.06;24.59;100999.41;104773;1274;73931;-73
2022/04/28 13:20:10;;;;;;;5.00;1.10;;;;;;;13.95;24.52;101000.61;104827;1274;68494;-73
2022/04/28 13:22:57;;;;;;;6.00;1.10;;;;;;;13.85;24.30;100999.45;105340;1273;73768;-72
2022/04/28 13:25:45;;;;;;;5.60;1.10;;;;;;;13.79;24.15;100999.38;105387;1273;59662;-74
2022/04/28 13:28:38;;;;;;;5.70;1.00;;;;;;;13.77;23.70;100999.32;106999;1273;59435;-75
2022/04/28 13:31:28;;;;;;;7.10;1.20;;;;;;;13.73;23.97;100998.20;106411;1276;72134;-76
2022/04/28 13:34:17;;;;;;;6.30;1.30;;;;;;;13.76;23.72;100997.48;104575;1277;68405;-77
2022/04/28 13:37:07;;;;;;;6.30;1.40;;;;;;;13.85;23.89;100995.32;104850;1277;73680;-72
2022/04/28 13:39:55;;;;;;;5.40;1.10;;;;;;;13.90;24.32;100995.70;104743;1277;59741;-73
2022/04/28 13:42:43;;;;;;;4.80;1.00;;;;;;;13.95;25.16;100990.27;104353;1278;60564;-75
2022/04/28 13:45:31;;;;;;;6.80;1.40;;;;;;;13.97;25.04;100987.67;104447;1279;73511;-74
2022/04/28 13:48:19;;;;;;;6.40;1.50;;;;;;;13.94;24.78;100986.59;104386;1277;67275;-74
2022/04/28 13:51:08;;;;;;;5.70;1.10;;;;;;;13.90;24.28;100979.23;104299;1277;72484;-71
2022/04/28 13:53:56;;;;;;;5.30;1.10;;;;;;;13.87;25.00;100984.88;104506;1277;59696;-76
2022/04/28 13:56:44;;;;;;;4.90;1.20;;;;;;;13.90;25.39;100981.23;104693;1278;62235;-77
2022/04/28 13:59:32;;;;;;;7.00;1.30;;;;;;;13.93;25.28;100980.64;104997;1277;71342;-72
2022/04/28 14:02:20;;;;;;;6.90;1.30;;;;;;;13.90;24.23;100982.10;104864;1274;66872;-74
2022/04/28 14:05:10;;;;;;;6.10;1.10;;;;;;;13.85;24.53;100978.58;104984;1273;74203;-76